createdAt,value
2022-11-14T00:01:21.899Z,5.76
2022-11-14T00:03:51.201Z,5.80
2022-11-14T00:06:19.537Z,5.80
2022-11-14T00:08:47.191Z,5.80
2022-11-14T00:11:14.854Z,5.80
2022-11-14T00:13:42.496Z,5.80
2022-11-14T00:16:10.112Z,5.80
2022-11-14T00:18:37.851Z,5.80
2022-11-14T00:21:05.652Z,5.80
2022-11-14T00:23:33.347Z,5.80
2022-11-14T00:26:01.032Z,5.80
2022-11-14T00:28:28.922Z,5.80
2022-11-14T00:30:56.982Z,5.80
2022-11-14T00:33:24.690Z,5.80
2022-11-14T00:35:56.704Z,5.80
2022-11-14T00:38:24.473Z,5.80
2022-11-14T00:40:52.171Z,5.80
2022-11-14T00:43:20.253Z,5.80
2022-11-14T00:45:48.360Z,5.74
2022-11-14T00:48:16.818Z,5.70
2022-11-14T00:50:44.900Z,5.70
2022-11-14T00:53:12.774Z,5.80
2022-11-14T00:55:42.399Z,5.76
2022-11-14T00:58:10.244Z,5.70
2022-11-14T01:00:38.691Z,5.66
2022-11-14T01:03:06.563Z,5.56
2022-11-14T01:05:34.312Z,5.50
2022-11-14T01:08:02.016Z,5.50
2022-11-14T01:10:29.834Z,5.50
2022-11-14T01:12:57.516Z,5.40
2022-11-14T01:15:25.226Z,5.44
2022-11-14T01:17:52.916Z,5.50
2022-11-14T01:20:20.562Z,5.50
2022-11-14T01:22:48.228Z,5.60
2022-11-14T01:25:15.929Z,5.50
2022-11-14T01:27:43.609Z,5.50
2022-11-14T01:30:12.591Z,5.42
2022-11-14T01:32:40.299Z,5.40
2022-11-14T01:35:08.356Z,5.40
2022-11-14T01:37:36.047Z,5.30
2022-11-14T01:40:04.273Z,5.30
2022-11-14T01:42:31.865Z,5.30
2022-11-14T01:44:59.668Z,5.30
2022-11-14T01:47:33.381Z,5.30
2022-11-14T01:50:05.902Z,5.38
2022-11-14T01:52:40.882Z,5.40
2022-11-14T01:55:10.883Z,5.42
2022-11-14T01:57:48.151Z,5.48
2022-11-14T02:00:16.112Z,5.30
2022-11-14T02:02:44.315Z,5.28
2022-11-14T02:05:17.819Z,5.30
2022-11-14T02:07:45.527Z,5.40
2022-11-14T02:10:20.699Z,5.40
2022-11-14T02:12:50.844Z,5.38
2022-11-14T02:15:18.643Z,5.30
2022-11-14T02:17:46.378Z,5.38
2022-11-14T02:20:24.786Z,5.34
2022-11-14T02:22:52.729Z,5.40
2022-11-14T02:25:21.582Z,5.40
2022-11-14T02:27:51.219Z,5.50
2022-11-14T02:30:23.152Z,5.50
2022-11-14T02:33:09.981Z,5.50
2022-11-14T02:35:38.722Z,5.50
2022-11-14T02:38:06.632Z,5.50
2022-11-14T02:40:34.673Z,5.50
2022-11-14T02:43:02.395Z,5.40
2022-11-14T02:45:30.316Z,5.40
2022-11-14T02:47:58.004Z,5.50
2022-11-14T02:50:25.711Z,5.50
2022-11-14T02:52:54.110Z,5.50
2022-11-14T02:55:22.196Z,5.50
2022-11-14T02:57:49.848Z,5.46
2022-11-14T03:00:18.739Z,5.40
2022-11-14T03:02:46.465Z,5.30
2022-11-14T03:05:14.251Z,5.26
2022-11-14T03:07:41.875Z,5.26
2022-11-14T03:10:10.105Z,5.30
2022-11-14T03:12:38.053Z,5.20
2022-11-14T03:15:06.763Z,5.12
2022-11-14T03:17:35.423Z,5.10
2022-11-14T03:20:04.155Z,5.08
2022-11-14T03:22:31.807Z,5.00
2022-11-14T03:24:59.412Z,5.10
2022-11-14T03:27:27.091Z,5.16
2022-11-14T03:29:55.622Z,5.20
2022-11-14T03:32:23.351Z,5.10
2022-11-14T03:34:51.076Z,5.10
2022-11-14T03:37:18.899Z,5.10
2022-11-14T03:39:46.654Z,5.10
2022-11-14T03:42:14.283Z,5.10
2022-11-14T03:44:41.946Z,5.02
2022-11-14T03:47:10.226Z,5.00
2022-11-14T03:49:37.993Z,5.00
2022-11-14T03:52:05.658Z,5.00
2022-11-14T03:54:33.370Z,5.10
2022-11-14T03:57:00.970Z,5.10
2022-11-14T03:59:28.615Z,5.10
2022-11-14T04:01:56.333Z,5.10
2022-11-14T04:04:24.105Z,5.10
2022-11-14T04:06:51.820Z,5.02
2022-11-14T04:09:19.552Z,5.00
2022-11-14T04:11:47.168Z,5.00
2022-11-14T04:14:14.840Z,5.00
2022-11-14T04:16:42.589Z,5.00
2022-11-14T04:19:10.204Z,5.00
2022-11-14T04:21:37.788Z,5.08
2022-11-14T04:24:10.785Z,5.10
2022-11-14T04:26:38.795Z,5.00
2022-11-14T04:29:06.579Z,5.00
2022-11-14T04:31:34.176Z,5.00
2022-11-14T04:34:02.375Z,5.00
2022-11-14T04:36:30.075Z,4.94
2022-11-14T04:38:57.663Z,5.00
2022-11-14T04:41:25.327Z,5.00
2022-11-14T04:43:53.035Z,5.00
2022-11-14T04:46:21.071Z,5.00
2022-11-14T04:48:48.808Z,5.00
2022-11-14T04:51:16.538Z,5.00
2022-11-14T04:53:44.303Z,5.00
2022-11-14T04:56:11.975Z,5.00
2022-11-14T04:58:39.773Z,5.00
2022-11-14T05:01:12.016Z,5.00
2022-11-14T05:03:39.713Z,5.02
2022-11-14T05:06:08.015Z,5.10
2022-11-14T05:08:35.700Z,5.00
2022-11-14T05:11:03.655Z,4.94
2022-11-14T05:13:31.467Z,4.90
2022-11-14T05:16:01.270Z,4.90
2022-11-14T05:18:29.236Z,4.90
2022-11-14T05:21:01.547Z,4.90
2022-11-14T05:23:29.643Z,4.96
2022-11-14T05:26:06.516Z,5.00
2022-11-14T05:28:34.358Z,5.00
2022-11-14T05:31:08.999Z,4.96
2022-11-14T05:33:37.264Z,4.90
2022-11-14T05:36:11.973Z,4.90
2022-11-14T05:38:39.770Z,4.90
2022-11-14T05:41:11.375Z,4.98
2022-11-14T05:43:40.144Z,5.00
2022-11-14T05:46:12.225Z,4.96
2022-11-14T05:48:40.754Z,4.90
2022-11-14T05:51:12.775Z,4.88
2022-11-14T05:53:41.519Z,4.90
2022-11-14T05:56:13.352Z,4.90
2022-11-14T05:58:41.215Z,4.90
2022-11-14T06:01:15.142Z,4.90
2022-11-14T06:03:45.998Z,4.90
2022-11-14T06:06:21.122Z,4.94
2022-11-14T06:08:49.500Z,4.90
2022-11-14T06:11:20.837Z,4.90
2022-11-14T06:13:48.877Z,4.90
2022-11-14T06:16:19.687Z,4.90
2022-11-14T06:18:47.832Z,4.90
2022-11-14T06:21:22.564Z,4.90
2022-11-14T06:23:51.344Z,5.00
2022-11-14T06:26:30.671Z,5.00
2022-11-14T06:29:00.301Z,5.00
2022-11-14T06:31:28.322Z,5.00
2022-11-14T06:33:56.952Z,5.00
2022-11-14T06:36:24.844Z,5.00
2022-11-14T06:38:52.483Z,5.00
2022-11-14T06:41:22.605Z,5.00
2022-11-14T06:43:53.179Z,5.00
2022-11-14T06:46:26.321Z,5.00
2022-11-14T06:48:54.523Z,5.10
2022-11-14T06:51:22.401Z,5.14
2022-11-14T06:53:50.019Z,5.10
2022-11-14T06:56:20.380Z,5.02
2022-11-14T06:58:50.297Z,5.00
2022-11-14T07:01:28.622Z,4.90
2022-11-14T07:04:00.696Z,4.90
2022-11-14T07:06:30.456Z,4.90
2022-11-14T07:08:59.939Z,4.92
2022-11-14T07:11:29.740Z,4.94
2022-11-14T07:14:02.983Z,4.90
2022-11-14T07:16:36.024Z,4.90
2022-11-14T07:19:09.072Z,4.90
2022-11-14T07:21:37.251Z,4.90
2022-11-14T07:24:05.595Z,4.90
2022-11-14T07:26:33.261Z,4.90
2022-11-14T07:29:02.793Z,5.00
2022-11-14T07:31:30.845Z,5.02
2022-11-14T07:33:58.659Z,5.00
2022-11-14T07:36:26.297Z,5.00
2022-11-14T07:38:54.746Z,5.00
2022-11-14T07:41:22.575Z,5.00
2022-11-14T07:43:50.289Z,5.00
2022-11-14T07:46:18.865Z,5.00
2022-11-14T07:48:46.599Z,5.00
2022-11-14T07:51:18.882Z,5.00
2022-11-14T07:53:47.131Z,5.00
2022-11-14T07:56:17.163Z,5.00
2022-11-14T07:58:44.911Z,5.00
2022-11-14T08:01:14.315Z,5.00
2022-11-14T08:03:46.064Z,5.00
2022-11-14T08:06:16.523Z,5.00
2022-11-14T08:08:44.451Z,5.00
2022-11-14T08:11:12.431Z,5.06
2022-11-14T08:13:40.196Z,5.10
2022-11-14T08:16:13.446Z,5.16
2022-11-14T08:18:41.905Z,5.22
2022-11-14T08:21:09.562Z,5.28
2022-11-14T08:23:37.484Z,5.30
2022-11-14T08:26:05.393Z,5.32
2022-11-14T08:28:33.477Z,5.40
2022-11-14T08:31:03.946Z,5.40
2022-11-14T08:33:32.342Z,5.40
2022-11-14T08:36:05.640Z,5.40
2022-11-14T08:38:34.685Z,5.40
2022-11-14T08:41:05.035Z,5.40
2022-11-14T08:43:33.359Z,5.50
2022-11-14T08:46:05.174Z,5.50
2022-11-14T08:48:33.645Z,5.60
2022-11-14T08:51:06.763Z,5.62
2022-11-14T08:53:35.020Z,5.70
2022-11-14T08:56:03.607Z,5.70
2022-11-14T08:58:32.744Z,5.62
2022-11-14T09:01:07.248Z,5.60
2022-11-14T09:03:35.403Z,5.60
2022-11-14T09:06:03.719Z,5.58
2022-11-14T09:08:31.726Z,5.58
2022-11-14T09:11:09.209Z,5.66
2022-11-14T09:13:37.735Z,5.70
2022-11-14T09:16:05.860Z,5.70
2022-11-14T09:18:33.753Z,5.70
2022-11-14T09:21:04.862Z,5.70
2022-11-14T09:23:34.359Z,5.72
2022-11-14T09:26:07.311Z,5.80
2022-11-14T09:28:36.334Z,5.80
2022-11-14T09:31:09.003Z,5.80
2022-11-14T09:33:37.060Z,5.88
2022-11-14T09:36:09.399Z,5.90
2022-11-14T09:38:38.757Z,5.90
2022-11-14T09:41:37.866Z,5.90
2022-11-14T09:44:20.474Z,6.00
2022-11-14T09:47:07.697Z,6.00
2022-11-14T09:49:40.017Z,6.10
2022-11-14T09:52:27.287Z,6.10
2022-11-14T09:55:01.209Z,6.12
2022-11-14T09:57:29.725Z,6.20
2022-11-14T09:59:57.523Z,6.20
2022-11-14T10:02:41.400Z,6.24
2022-11-14T10:05:24.772Z,6.36
2022-11-14T10:08:02.604Z,6.40
2022-11-14T10:10:52.130Z,6.50
2022-11-14T10:13:43.752Z,6.60
2022-11-14T10:16:11.336Z,6.60
2022-11-14T10:19:18.306Z,6.62
2022-11-14T10:22:11.243Z,6.70
2022-11-14T10:24:57.544Z,6.70
2022-11-14T10:27:36.076Z,6.70
2022-11-14T10:30:10.146Z,6.60
2022-11-14T10:33:00.564Z,6.60
2022-11-14T10:35:41.997Z,6.70
2022-11-14T10:38:38.990Z,6.70
2022-11-14T10:41:19.329Z,6.72
2022-11-14T10:43:57.762Z,6.78
2022-11-14T10:47:02.029Z,6.80
2022-11-14T10:49:36.461Z,6.88
2022-11-14T10:52:15.707Z,6.90
2022-11-14T10:55:00.182Z,7.00
2022-11-14T10:57:28.775Z,7.00
2022-11-14T10:59:56.522Z,6.90
2022-11-14T11:02:24.518Z,6.98
2022-11-14T11:04:52.171Z,7.00
2022-11-14T11:07:45.526Z,7.10
2022-11-14T11:10:42.607Z,7.10
2022-11-14T11:13:27.709Z,7.14
2022-11-14T11:16:00.285Z,7.10
2022-11-14T11:18:34.000Z,7.10
2022-11-14T11:21:12.936Z,7.16
2022-11-14T11:23:55.225Z,7.20
2022-11-14T11:26:30.469Z,7.20
2022-11-14T11:29:19.665Z,7.20
2022-11-14T11:31:55.835Z,7.20
2022-11-14T11:34:33.603Z,7.20
2022-11-14T11:37:25.227Z,7.30
2022-11-14T11:39:57.770Z,7.40
2022-11-14T11:43:36.746Z,7.40
2022-11-14T11:45:36.816Z,7.40
2022-11-14T11:48:18.219Z,7.40
2022-11-14T11:50:48.254Z,7.40
2022-11-14T11:53:34.513Z,7.50
2022-11-14T11:56:13.470Z,7.54
2022-11-14T11:59:20.861Z,7.62
2022-11-14T12:01:51.773Z,7.78
2022-11-14T12:04:19.702Z,7.80
2022-11-14T12:07:03.374Z,7.80
2022-11-14T12:12:43.849Z,7.90
2022-11-14T12:15:27.550Z,8.00
2022-11-14T12:18:38.161Z,8.00
2022-11-14T12:21:58.553Z,8.10
2022-11-14T12:24:53.334Z,8.10
2022-11-14T12:27:58.562Z,8.10
2022-11-14T12:30:28.268Z,8.20
2022-11-14T12:33:05.399Z,8.20
2022-11-14T12:35:36.889Z,8.30
2022-11-14T12:38:15.471Z,8.30
2022-11-14T12:40:53.750Z,8.30
2022-11-14T12:43:36.407Z,8.30
2022-11-14T12:46:11.080Z,8.30
2022-11-14T12:48:42.464Z,8.30
2022-11-14T12:51:25.628Z,8.30
2022-11-14T12:53:56.369Z,8.30
2022-11-14T12:56:32.839Z,8.30
2022-11-14T12:59:37.433Z,8.30
2022-11-14T13:02:46.202Z,8.30
2022-11-14T13:05:24.300Z,8.30
2022-11-14T13:08:18.518Z,8.40
2022-11-14T13:10:46.402Z,8.40
2022-11-14T13:13:35.188Z,8.40
2022-11-14T13:16:23.261Z,8.40
2022-11-14T13:19:20.454Z,8.40
2022-11-14T13:22:13.299Z,8.40
2022-11-14T13:24:57.544Z,8.36
2022-11-14T13:28:05.382Z,8.30
2022-11-14T13:31:18.977Z,8.30
2022-11-14T13:33:58.907Z,8.30
2022-11-14T13:37:14.770Z,8.30
2022-11-14T13:40:16.752Z,8.22
2022-11-14T13:43:29.569Z,8.30
2022-11-14T13:46:20.306Z,8.30
2022-11-14T13:49:04.024Z,8.30
2022-11-14T13:51:48.990Z,8.30
2022-11-14T13:54:18.509Z,8.30
2022-11-14T13:57:14.431Z,8.30
2022-11-14T14:00:23.858Z,8.26
2022-11-14T14:03:21.525Z,8.26
2022-11-14T14:06:16.084Z,8.30
2022-11-14T14:09:42.032Z,8.30
2022-11-14T14:12:40.848Z,8.30
2022-11-14T14:15:35.513Z,8.30
2022-11-14T14:18:30.414Z,8.30
2022-11-14T14:21:25.884Z,8.30
2022-11-14T14:24:04.657Z,8.32
2022-11-14T14:27:00.011Z,8.40
2022-11-14T14:29:55.746Z,8.40
2022-11-14T14:32:24.480Z,8.40
2022-11-14T14:34:57.155Z,8.40
2022-11-14T14:37:29.284Z,8.40
2022-11-14T14:40:22.031Z,8.40
2022-11-14T14:42:51.229Z,8.38
2022-11-14T14:45:22.273Z,8.34
2022-11-14T14:48:12.682Z,8.36
2022-11-14T14:50:48.197Z,8.38
2022-11-14T14:53:26.227Z,8.40
2022-11-14T14:56:07.082Z,8.50
2022-11-14T14:58:36.010Z,8.50
2022-11-14T15:01:11.563Z,8.44
2022-11-14T15:03:48.093Z,8.40
2022-11-14T15:06:35.355Z,8.40
2022-11-14T15:09:13.866Z,8.38
2022-11-14T15:11:45.483Z,8.34
2022-11-14T15:14:18.267Z,8.30
2022-11-14T15:16:50.083Z,8.30
2022-11-14T15:19:23.942Z,8.30
2022-11-14T15:22:17.742Z,8.30
2022-11-14T15:25:23.871Z,8.30
2022-11-14T15:27:55.069Z,8.30
2022-11-14T15:30:39.103Z,8.20
2022-11-14T15:33:27.012Z,8.20
2022-11-14T15:36:10.296Z,8.20
2022-11-14T15:38:46.139Z,8.20
2022-11-14T15:41:23.823Z,8.18
2022-11-14T15:43:55.195Z,8.10
2022-11-14T15:46:37.924Z,8.04
2022-11-14T15:49:14.996Z,8.00
2022-11-14T15:51:48.236Z,7.94
2022-11-14T15:54:34.296Z,7.90
2022-11-14T15:57:17.326Z,7.90
2022-11-14T15:59:45.588Z,7.90
2022-11-14T16:02:20.808Z,7.90
2022-11-14T16:04:52.272Z,7.82
2022-11-14T16:07:21.650Z,7.80
2022-11-14T16:09:49.427Z,7.76
2022-11-14T16:12:17.840Z,7.70
2022-11-14T16:14:45.663Z,7.70
2022-11-14T16:17:16.836Z,7.70
2022-11-14T16:19:44.579Z,7.70
2022-11-14T16:22:17.368Z,7.60
2022-11-14T16:24:45.173Z,7.60
2022-11-14T16:27:12.824Z,7.60
2022-11-14T16:29:40.470Z,7.60
2022-11-14T16:32:11.052Z,7.56
2022-11-14T16:34:38.760Z,7.50
2022-11-14T16:37:06.501Z,7.50
2022-11-14T16:39:34.485Z,7.50
2022-11-14T16:42:02.983Z,7.40
2022-11-14T16:44:35.891Z,7.40
2022-11-14T16:47:08.020Z,7.40
2022-11-14T16:49:35.641Z,7.40
2022-11-14T16:52:07.076Z,7.38
2022-11-14T16:54:34.893Z,7.30
2022-11-14T16:57:02.594Z,7.30
2022-11-14T16:59:30.267Z,7.22
2022-11-14T17:01:58.103Z,7.20
2022-11-14T17:04:25.828Z,7.20
2022-11-14T17:06:53.681Z,7.20
2022-11-14T17:09:21.413Z,7.20
2022-11-14T17:11:49.071Z,7.20
2022-11-14T17:14:16.728Z,7.20
2022-11-14T17:16:46.749Z,7.10
2022-11-14T17:19:14.420Z,7.10
2022-11-14T17:21:43.407Z,7.18
2022-11-14T17:24:11.193Z,7.12
2022-11-14T17:26:38.990Z,7.10
2022-11-14T17:29:07.077Z,7.10
2022-11-14T17:31:38.392Z,7.10
2022-11-14T17:34:10.661Z,7.00
2022-11-14T17:36:38.484Z,7.00
2022-11-14T17:39:06.193Z,6.98
2022-11-14T17:41:35.281Z,6.90
2022-11-14T17:44:03.625Z,6.90
2022-11-14T17:46:31.567Z,6.90
2022-11-14T17:48:59.426Z,6.80
2022-11-14T17:51:27.280Z,6.82
2022-11-14T17:53:54.993Z,6.80
2022-11-14T17:56:26.091Z,6.80
2022-11-14T17:58:53.881Z,6.80
2022-11-14T18:01:25.019Z,6.80
2022-11-14T18:03:52.829Z,6.80
2022-11-14T18:06:21.359Z,6.80
2022-11-14T18:08:49.292Z,6.70
2022-11-14T18:11:18.191Z,6.70
2022-11-14T18:13:45.957Z,6.62
2022-11-14T18:16:20.154Z,6.60
2022-11-14T18:18:47.951Z,6.58
2022-11-14T18:21:19.981Z,6.50
2022-11-14T18:23:56.891Z,6.40
2022-11-14T18:26:28.821Z,6.40
2022-11-14T18:29:02.294Z,6.30
2022-11-14T18:31:30.406Z,6.30
2022-11-14T18:33:58.624Z,6.30
2022-11-14T18:36:26.322Z,6.28
2022-11-14T18:38:56.994Z,6.28
2022-11-14T18:41:25.127Z,6.26
2022-11-14T18:43:56.542Z,6.20
2022-11-14T18:46:25.932Z,6.18
2022-11-14T18:48:57.354Z,6.10
2022-11-14T18:51:29.216Z,6.00
2022-11-14T18:53:59.332Z,6.00
2022-11-14T18:56:27.319Z,6.00
2022-11-14T18:58:56.535Z,6.00
2022-11-14T19:01:29.811Z,6.00
2022-11-14T19:04:00.684Z,5.90
2022-11-14T19:06:32.512Z,5.90
2022-11-14T19:09:11.532Z,5.80
2022-11-14T19:11:58.403Z,5.80
2022-11-14T19:14:26.734Z,5.88
2022-11-14T19:16:54.770Z,5.90
2022-11-14T19:19:22.439Z,5.82
2022-11-14T19:21:50.858Z,5.80
2022-11-14T19:24:18.961Z,5.80
2022-11-14T19:26:46.824Z,5.80
2022-11-14T19:29:14.512Z,5.80
2022-11-14T19:31:43.537Z,5.80
2022-11-14T19:34:11.303Z,5.80
2022-11-14T19:36:58.711Z,5.80
2022-11-14T19:39:26.880Z,5.80
2022-11-14T19:41:54.685Z,5.80
2022-11-14T19:44:22.407Z,5.80
2022-11-14T19:46:51.471Z,5.80
2022-11-14T19:49:19.210Z,5.80
2022-11-14T19:51:47.034Z,5.78
2022-11-14T19:54:14.766Z,5.70
2022-11-14T19:56:42.531Z,5.80
2022-11-14T19:59:14.979Z,5.80
2022-11-14T20:01:45.139Z,5.80
2022-11-14T20:04:13.700Z,5.80
2022-11-14T20:06:42.069Z,5.80
2022-11-14T20:09:11.127Z,5.76
2022-11-14T20:11:39.188Z,5.70
2022-11-14T20:14:07.028Z,5.70
2022-11-14T20:16:37.439Z,5.70
2022-11-14T20:19:05.458Z,5.60
2022-11-14T20:21:35.334Z,5.70
2022-11-14T20:24:03.267Z,5.70
2022-11-14T20:26:31.145Z,5.70
2022-11-14T20:28:59.392Z,5.70
2022-11-14T20:31:30.417Z,5.74
2022-11-14T20:33:58.279Z,5.80
2022-11-14T20:36:32.010Z,5.84
2022-11-14T20:39:07.081Z,5.80
2022-11-14T20:41:34.844Z,5.80
2022-11-14T20:44:03.786Z,5.80
2022-11-14T20:46:31.724Z,5.70
2022-11-14T20:48:59.422Z,5.70
2022-11-14T20:51:28.050Z,5.70
2022-11-14T20:53:55.971Z,5.70
2022-11-14T20:56:23.806Z,5.70
2022-11-14T20:58:54.208Z,5.70
2022-11-14T21:01:22.029Z,5.68
2022-11-14T21:03:49.970Z,5.60
2022-11-14T21:06:17.654Z,5.60
2022-11-14T21:08:45.441Z,5.60
2022-11-14T21:11:18.278Z,5.60
2022-11-14T21:14:01.715Z,5.68
2022-11-14T21:16:36.493Z,5.70
2022-11-14T21:19:07.614Z,5.60
2022-11-14T21:21:38.139Z,5.60
2022-11-14T21:24:06.987Z,5.60
2022-11-14T21:26:39.344Z,5.50
2022-11-14T21:29:12.350Z,5.52
2022-11-14T21:31:44.688Z,5.50
2022-11-14T21:34:16.694Z,5.50
2022-11-14T21:36:46.376Z,5.50
2022-11-14T21:39:16.833Z,5.42
2022-11-14T21:41:48.146Z,5.40
2022-11-14T21:44:17.864Z,5.40
2022-11-14T21:46:48.675Z,5.40
2022-11-14T21:49:16.753Z,5.40
2022-11-14T21:51:44.452Z,5.40
2022-11-14T21:54:12.293Z,5.40
2022-11-14T21:56:40.012Z,5.40
2022-11-14T21:59:18.655Z,5.40
2022-11-14T22:02:08.172Z,5.40
2022-11-14T22:04:37.703Z,5.38
2022-11-14T22:07:08.247Z,5.40
2022-11-14T22:09:39.845Z,5.40
2022-11-14T22:12:10.333Z,5.40
2022-11-14T22:14:37.920Z,5.40
2022-11-14T22:17:05.579Z,5.34
2022-11-14T22:19:33.247Z,5.40
2022-11-14T22:22:00.944Z,5.40
2022-11-14T22:24:28.621Z,5.40
2022-11-14T22:26:56.308Z,5.40
2022-11-14T22:29:23.899Z,5.40
2022-11-14T22:31:53.083Z,5.40
2022-11-14T22:34:20.856Z,5.38
2022-11-14T22:36:48.574Z,5.30
2022-11-14T22:39:16.226Z,5.26
2022-11-14T22:41:43.839Z,5.18
2022-11-14T22:44:11.595Z,5.10
2022-11-14T22:46:39.202Z,5.10
2022-11-14T22:49:06.884Z,5.14
2022-11-14T22:51:34.506Z,5.20
2022-11-14T22:54:02.176Z,5.20
2022-11-14T22:56:29.962Z,5.16
2022-11-14T22:58:59.524Z,5.20
2022-11-14T23:01:32.570Z,5.10
2022-11-14T23:04:03.496Z,5.10
2022-11-14T23:06:34.204Z,5.16
2022-11-14T23:09:03.734Z,5.10
2022-11-14T23:11:33.090Z,5.20
2022-11-14T23:14:01.489Z,5.10
2022-11-14T23:16:32.738Z,5.08
2022-11-14T23:19:04.569Z,5.00
2022-11-14T23:21:36.391Z,5.00
2022-11-14T23:24:10.081Z,5.00
2022-11-14T23:26:37.776Z,5.00
2022-11-14T23:29:05.793Z,5.10
2022-11-14T23:31:33.547Z,5.20
2022-11-14T23:34:01.629Z,5.20
2022-11-14T23:36:29.420Z,5.20
2022-11-14T23:38:57.037Z,5.20
2022-11-14T23:41:27.956Z,5.28
2022-11-14T23:43:55.555Z,5.22
2022-11-14T23:46:23.243Z,5.20
2022-11-14T23:48:53.248Z,5.20
2022-11-14T23:51:20.832Z,5.20
2022-11-14T23:53:48.699Z,5.10
2022-11-14T23:56:16.449Z,5.00
2022-11-14T23:58:44.455Z,4.96
